• Join FlightAware (Why Join?)
  • Login
  • US Flag 
03:53PM EDT


 

Airport Tracker/Info


-or-


 

Live Flight TrackerFlight Track Log ✈ SWA1031 ✈ 15-Oct-2013 ✈ KDEN - KPHX

Flight Track Log - Related Links

Times and Time Zones

All times are in EDT time to prevent confusion due to time zone crossing. See the SWA1031 flight status page for this flight to view local times or setup timezone preferences in your user account.

Time Position Orientation Groundspeed Altitude Reporting Facility
EDT Latitude Longitude Course Direction KTS MPH feet Rate Location/Type
11:03AM 39.8667 -104.5667 134° Southeast 222 255 7,200  Level Denver TRACON
11:04AM 39.8167 -104.5000 134° Southeast 287 330 9,300 1,860 Climbing Denver TRACON
11:05AM 39.7333 -104.5000 180° South 331 381 11,000 2,280 Climbing Denver TRACON
11:06AM 39.6667 -104.5667 218° Southwest 344 396 13,900 2,460 Climbing Denver TRACON
11:07AM 39.6289 -104.6086 221° Southwest 345 397 14,700 2,400 Climbing Denver Center
11:08AM 39.5403 -104.6911 216° Southwest 360 414 17,600 2,100 Climbing Denver Center
11:09AM 39.4558 -104.7703 216° Southwest 379 436 19,100 1,740 Climbing Denver Center
11:10AM 39.3639 -104.8561 216° Southwest 379 436 21,200 1,740 Climbing Denver Center
11:11AM 39.2750 -104.9394 216° Southwest 392 451 22,800 2,040 Climbing Denver Center
11:12AM 39.1808 -105.0267 216° Southwest 386 444 25,500 2,460 Climbing Denver Center
11:13AM 39.0942 -105.0933 211° Southwest 362 417 28,000 1,920 Climbing Denver Center
11:14AM 39.0033 -105.1503 206° Southwest 363 418 29,500 1,380 Climbing Denver Center
11:15AM 38.9150 -105.2108 208° Southwest 361 415 30,900 1,320 Climbing Denver Center
11:16AM 38.8364 -105.2844 216° Southwest 351 404 32,300 1,440 Climbing Denver Center
11:17AM 38.7533 -105.3817 222° Southwest 338 389 33,900 1,080 Climbing Denver Center
11:18AM 38.6833 -105.4597 221° Southwest 334 384 34,600 540 Climbing Denver Center
11:19AM 38.6097 -105.5408 221° Southwest 345 397 35,100 660 Climbing Denver Center
11:20AM 38.5375 -105.6222 221° Southwest 347 399 36,000 420 Climbing Denver Center
11:21AM 38.4653 -105.7047 222° Southwest 347 399 36,000  Level Denver Center
11:22AM 38.3919 -105.7844 220° Southwest 347 399 36,000  Level Denver Center
11:23AM 38.3075 -105.8794 221° Southwest 347 399 36,000  Level Denver Center
11:24AM 38.2381 -105.9558 221° Southwest 346 398 36,000  Level Denver Center
11:25AM 38.1578 -106.0456 221° Southwest 344 396 36,000  Level Denver Center
11:26AM 38.0886 -106.1217 221° Southwest 344 396 36,000  Level Denver Center
11:27AM 38.0081 -106.2111 221° Southwest 344 396 36,000  Level Denver Center
11:28AM 37.9394 -106.2869 221° Southwest 343 395 36,000  Level Denver Center
11:30AM 37.8589 -106.3753 221° Southwest 344 396 36,000  Level Denver Center
11:31AM 37.7831 -106.4561 220° Southwest 346 398 36,000  Level Denver Center
11:32AM 37.7144 -106.5317 221° Southwest 340 391 36,000  Level Denver Center
11:33AM 37.6342 -106.6194 221° Southwest 342 394 36,000  Level Denver Center
11:34AM 37.5644 -106.6933 220° Southwest 342 394 36,000  Level Denver Center
11:35AM 37.4844 -106.7822 221° Southwest 342 394 36,000  Level Denver Center
11:36AM 37.4156 -106.8569 221° Southwest 342 394 36,000  Level Denver Center
11:37AM 37.3342 -106.9436 220° Southwest 344 396 36,000  Level Denver Center
11:38AM 37.2642 -107.0175 220° Southwest 343 395 36,000  Level Denver Center
11:39AM 37.1950 -107.0919 221° Southwest 342 394 36,000  Level Denver Center
11:40AM 37.1128 -107.1794 220° Southwest 344 396 36,000  Level Denver Center
11:41AM 37.0422 -107.2544 220° Southwest 346 398 36,000  Level Denver Center
11:42AM 36.9611 -107.3422 221° Southwest 347 399 36,000  Level Denver Center
11:43AM 36.8906 -107.4153 220° Southwest 344 396 36,000  Level Denver Center
11:44AM 36.8078 -107.5025 220° Southwest 346 398 36,000  Level Denver Center
11:45AM 36.7375 -107.5778 221° Southwest 347 399 36,000  Level Denver Center
11:46AM 36.6536 -107.6628 219° Southwest 347 399 36,000  Level Denver Center
11:47AM 36.5828 -107.7378 220° Southwest 349 402 36,000  Level Denver Center
11:48AM 36.4986 -107.8264 220° Southwest 354 407 36,000  Level Denver Center
11:49AM 36.4267 -107.9014 220° Southwest 353 406 36,000  Level Denver Center
11:50AM 36.3539 -107.9764 220° Southwest 355 409 36,000  Level Denver Center
11:51AM 36.3056 -108.0281 221° Southwest 356 410 36,000  Level Albuquerque Center
11:52AM 36.2197 -108.1158 220° Southwest 357 411 36,000  Level Albuquerque Center
11:53AM 36.1469 -108.1917 220° Southwest 356 410 36,000  Level Albuquerque Center
11:54AM 36.0733 -108.2664 219° Southwest 356 410 36,000  Level Albuquerque Center
11:55AM 35.9892 -108.3581 221° Southwest 358 412 36,000 -300 Level Albuquerque Center
11:56AM 35.9200 -108.4408 224° Southwest 359 413 35,400 -780 Descending Albuquerque Center
11:57AM 35.8394 -108.5372 224° Southwest 359 413 34,400 -720 Descending Albuquerque Center
11:58AM 35.7697 -108.6219 225° Southwest 362 417 34,000 -240 Descending Albuquerque Center
11:59AM 35.6856 -108.7208 224° Southwest 369 425 34,000  Level Albuquerque Center
12:00PM 35.6119 -108.8067 223° Southwest 376 433 34,000  Level Albuquerque Center
12:01PM 35.5392 -108.8925 224° Southwest 377 434 34,000  Level Albuquerque Center
12:02PM 35.4539 -108.9928 224° Southwest 378 435 34,000  Level Albuquerque Center
12:03PM 35.3808 -109.0772 223° Southwest 377 434 34,000  Level Albuquerque Center
12:04PM 35.2961 -109.1764 224° Southwest 376 433 34,000  Level Albuquerque Center
12:05PM 35.2242 -109.2611 224° Southwest 375 432 34,000  Level Albuquerque Center
12:06PM 35.1394 -109.3589 223° Southwest 375 432 34,000  Level Albuquerque Center
12:07PM 35.0669 -109.4433 224° Southwest 376 433 34,000  Level Albuquerque Center
12:08PM 34.9806 -109.5425 223° Southwest 379 436 34,000  Level Albuquerque Center
12:09PM 34.9069 -109.6286 224° Southwest 382 440 34,000  Level Albuquerque Center
12:10PM 34.8208 -109.7261 223° Southwest 380 437 34,000  Level Albuquerque Center
12:11PM 34.7461 -109.8119 223° Southwest 383 441 34,000  Level Albuquerque Center
12:12PM 34.6850 -109.9067 232° Southwest 376 433 34,000  Level Albuquerque Center
12:13PM 34.6400 -110.0400 248° West 377 434 34,000  Level Albuquerque Center
12:15PM 34.6006 -110.1544 247° West 381 438 34,000  Level Albuquerque Center
12:16PM 34.5542 -110.2883 247° West 383 441 34,000 -240 Level Albuquerque Center
12:17PM 34.5075 -110.3917 241° Southwest 371 427 33,600 -540 Descending Albuquerque Center
12:18PM 34.4694 -110.5047 248° West 381 438 33,000 -1,260 Descending Albuquerque Center
12:19PM 34.4175 -110.6386 245° Southwest 370 426 31,100 -2,100 Descending Albuquerque Center
12:20PM 34.3725 -110.7517 244° Southwest 373 429 28,700 -1,500 Descending Albuquerque Center
12:21PM 34.3131 -110.8506 234° Southwest 365 420 28,000 -1,200 Descending Albuquerque Center
12:22PM 34.2417 -110.9408 226° Southwest 368 423 26,300 -1,860 Descending Albuquerque Center
12:23PM 34.1744 -111.0283 227° Southwest 362 417 24,300 -1,980 Descending Albuquerque Center
12:24PM 34.1083 -111.1133 227° Southwest 352 405 22,300 -2,100 Descending Albuquerque Center
12:25PM 34.0331 -111.2103 227° Southwest 337 388 20,000 -2,040 Descending Albuquerque Center
12:26PM 33.9719 -111.2889 227° Southwest 325 374 18,200 -1,800 Descending Albuquerque Center
12:27PM 33.9125 -111.3644 227° Southwest 311 358 16,300 -1,500 Descending Albuquerque Center
12:28PM 33.8611 -111.4433 232° Southwest 300 345 15,200 -1,320 Descending Albuquerque Center
12:29PM 33.8186 -111.5267 238° Southwest 293 337 13,600 -1,620 Descending Albuquerque Center
12:30PM 33.7750 -111.6069 237° Southwest 286 329 11,900 -1,620 Descending Albuquerque Center
12:31PM 33.7328 -111.6861 237° Southwest 280 322 10,300 -960 Descending Albuquerque Center
12:32PM 33.6900 -111.7647 237° Southwest 280 322 10,000 -540 Descending Albuquerque Center
12:33PM 33.6489 -111.8400 237° Southwest 271 312 9,300 -540 Descending Albuquerque Center
12:34PM 33.6006 -111.9272 236° Southwest 261 300 9,000 -540 Descending Albuquerque Center
12:35PM 33.5650 -111.9986 239° Southwest 251 289 8,200 -1,080 Descending Albuquerque Center
12:36PM 33.5272 -112.0697 238° Southwest 252 290 6,800 -1,140 Descending Albuquerque Center
12:37PM 33.5258 -112.1494 269° West 242 278 5,900 -1,200 Descending Albuquerque Center
12:38PM 33.4878 -112.1778 212° Southwest 194 223 4,400 -1,380 Descending Albuquerque Center
12:39PM 33.4486 -112.1394 141° Southeast 182 209 3,100 -1,080 Descending Albuquerque Center
12:40PM 33.4314 -112.0903 113° Southeast 159 183 2,200 -960 Descending Albuquerque Center
12:41PM 33.4317 -112.0325 90° East 146 168 1,200 -1,020 Descending Albuquerque Center